CAX75 CYAZ-CYCW
Flight info
| Callsign | CAX75 |
|---|---|
| Flight time | N/A |
| Altitude | 9000 |
| Route | AVUMU DCT DASMU DCT OMVIN DCT HUH |
| Aircraft | BE58/L-SDFGRY/C |
Departure
| Time | 2026-04-24 14:51 |
|---|---|
| Airport | Tofino / Long Beach Airport (CYAZ) |
Arrival
| Time | N/A |
|---|---|
| Airport | Chilliwack Airport (CYCW) |
| Time | Latitude | Longitude | Altitude | Speed | Heading |
|---|---|---|---|---|---|
| 2026-04-24 14:00 | 49.07823 | -125.76709 | 93 ft | 0 kts | 46° |
| 2026-04-24 14:42 | 49.07823 | -125.76708 | 92 ft | 0 kts | 47° |
| 2026-04-24 14:42 | 49.07819 | -125.76683 | 94 ft | 4 kts | 164° |
| 2026-04-24 14:42 | 49.07816 | -125.76682 | 93 ft | 2 kts | 185° |
| 2026-04-24 14:42 | 49.07799 | -125.76736 | 92 ft | 10 kts | 269° |
| 2026-04-24 14:43 | 49.07816 | -125.76856 | 93 ft | 14 kts | 309° |
| 2026-04-24 14:43 | 49.07870 | -125.76969 | 92 ft | 13 kts | 305° |
| 2026-04-24 14:43 | 49.07922 | -125.77081 | 94 ft | 15 kts | 306° |
| 2026-04-24 14:43 | 49.07983 | -125.77213 | 92 ft | 14 kts | 305° |
| 2026-04-24 14:44 | 49.08043 | -125.77327 | 92 ft | 12 kts | 308° |
| 2026-04-24 14:44 | 49.08099 | -125.77448 | 92 ft | 17 kts | 304° |
| 2026-04-24 14:44 | 49.08135 | -125.77531 | 92 ft | 9 kts | 304° |
| 2026-04-24 14:44 | 49.08180 | -125.77634 | 92 ft | 12 kts | 303° |
| 2026-04-24 14:45 | 49.08242 | -125.77703 | 92 ft | 14 kts | 358° |
| 2026-04-24 14:45 | 49.08353 | -125.77720 | 94 ft | 15 kts | 354° |
| 2026-04-24 14:45 | 49.08468 | -125.77738 | 93 ft | 19 kts | 355° |
| 2026-04-24 14:45 | 49.08597 | -125.77757 | 92 ft | 10 kts | 354° |
| 2026-04-24 14:46 | 49.08688 | -125.77770 | 92 ft | 16 kts | 354° |
| 2026-04-24 14:46 | 49.08789 | -125.77789 | 92 ft | 13 kts | 341° |
| 2026-04-24 14:46 | 49.08849 | -125.77883 | 92 ft | 14 kts | 310° |
| 2026-04-24 14:46 | 49.08897 | -125.77975 | 93 ft | 7 kts | 309° |
| 2026-04-24 14:47 | 49.08903 | -125.77987 | 94 ft | 0 kts | 309° |
| 2026-04-24 14:49 | 49.08905 | -125.77989 | 93 ft | 3 kts | 309° |
| 2026-04-24 14:49 | 49.08938 | -125.78056 | 93 ft | 10 kts | 296° |
| 2026-04-24 14:49 | 49.08920 | -125.78122 | 93 ft | 9 kts | 192° |
| 2026-04-24 14:49 | 49.08859 | -125.78115 | 92 ft | 0 kts | 175° |
| 2026-04-24 14:50 | 49.08774 | -125.78102 | 90 ft | 44 kts | 174° |
| 2026-04-24 14:50 | 49.08175 | -125.78010 | 157 ft | 114 kts | 173° |
| 2026-04-24 14:51 | 49.07307 | -125.77865 | 439 ft | 139 kts | 172° |
| 2026-04-24 14:51 | 49.06320 | -125.77694 | 919 ft | 143 kts | 172° |
| 2026-04-24 14:51 | 49.05293 | -125.77506 | 1237 ft | 155 kts | 171° |
| 2026-04-24 14:51 | 49.04202 | -125.77294 | 1487 ft | 161 kts | 170° |
| 2026-04-24 14:52 | 49.03079 | -125.77188 | 1750 ft | 163 kts | 176° |
| 2026-04-24 14:52 | 49.01942 | -125.77103 | 1995 ft | 164 kts | 174° |
| 2026-04-24 14:52 | 49.00800 | -125.76952 | 2210 ft | 165 kts | 173° |
| 2026-04-24 14:52 | 48.99640 | -125.76786 | 2405 ft | 165 kts | 172° |
| 2026-04-24 14:53 | 48.98507 | -125.76622 | 2592 ft | 166 kts | 172° |
| 2026-04-24 14:53 | 48.97355 | -125.76456 | 2777 ft | 166 kts | 172° |
| 2026-04-24 14:53 | 48.96191 | -125.76288 | 2957 ft | 166 kts | 172° |
| 2026-04-24 14:53 | 48.95039 | -125.76123 | 3134 ft | 166 kts | 172° |
| 2026-04-24 14:54 | 48.93886 | -125.75957 | 3312 ft | 166 kts | 172° |
| 2026-04-24 14:54 | 48.92789 | -125.75582 | 3483 ft | 163 kts | 146° |
| 2026-04-24 14:54 | 48.92164 | -125.74233 | 3658 ft | 158 kts | 102° |
| 2026-04-24 14:54 | 48.92046 | -125.72579 | 3840 ft | 158 kts | 86° |
| 2026-04-24 14:55 | 48.92099 | -125.71456 | 3960 ft | 157 kts | 89° |
| 2026-04-24 14:55 | 48.91951 | -125.69265 | 4197 ft | 158 kts | 97° |
| 2026-04-24 14:55 | 48.91778 | -125.67620 | 4377 ft | 157 kts | 97° |
| 2026-04-24 14:55 | 48.91601 | -125.65978 | 4555 ft | 157 kts | 97° |
| 2026-04-24 14:56 | 48.91423 | -125.64340 | 4736 ft | 157 kts | 97° |
| 2026-04-24 14:56 | 48.91247 | -125.62703 | 4921 ft | 157 kts | 97° |
| 2026-04-24 14:56 | 48.91069 | -125.61071 | 5099 ft | 156 kts | 97° |
| 2026-04-24 14:56 | 48.90893 | -125.59446 | 5272 ft | 156 kts | 96° |
| 2026-04-24 14:57 | 48.90716 | -125.57822 | 5447 ft | 156 kts | 96° |
| 2026-04-24 14:57 | 48.90540 | -125.56196 | 5627 ft | 156 kts | 96° |
| 2026-04-24 14:57 | 48.90362 | -125.54570 | 5805 ft | 156 kts | 95° |
| 2026-04-24 14:57 | 48.90184 | -125.52947 | 5979 ft | 156 kts | 95° |
| 2026-04-24 14:58 | 48.90007 | -125.51322 | 6146 ft | 157 kts | 95° |
| 2026-04-24 14:58 | 48.89827 | -125.49674 | 6277 ft | 159 kts | 95° |
| 2026-04-24 14:58 | 48.89645 | -125.48012 | 6409 ft | 160 kts | 95° |
| 2026-04-24 14:58 | 48.89461 | -125.46341 | 6536 ft | 161 kts | 94° |
| 2026-04-24 14:59 | 48.89277 | -125.44665 | 6667 ft | 161 kts | 94° |
| 2026-04-24 14:59 | 48.89091 | -125.42983 | 6792 ft | 161 kts | 94° |
| 2026-04-24 14:59 | 48.88906 | -125.41301 | 6917 ft | 161 kts | 94° |
| 2026-04-24 14:59 | 48.88720 | -125.39618 | 7038 ft | 161 kts | 94° |
| 2026-04-24 15:00 | 48.88534 | -125.37931 | 7161 ft | 162 kts | 94° |
| 2026-04-24 15:00 | 48.88459 | -125.36255 | 7285 ft | 157 kts | 76° |
| 2026-04-24 15:00 | 48.88821 | -125.34724 | 7410 ft | 153 kts | 62° |
| 2026-04-24 15:00 | 48.89243 | -125.33238 | 7538 ft | 153 kts | 62° |
| 2026-04-24 15:01 | 48.89664 | -125.31747 | 7663 ft | 153 kts | 62° |
| 2026-04-24 15:01 | 48.90086 | -125.30255 | 7789 ft | 153 kts | 62° |
| 2026-04-24 15:01 | 48.90508 | -125.28767 | 7920 ft | 153 kts | 62° |
| 2026-04-24 15:01 | 48.90928 | -125.27280 | 8066 ft | 152 kts | 62° |
| 2026-04-24 15:02 | 48.91346 | -125.25805 | 8219 ft | 151 kts | 62° |
| 2026-04-24 15:02 | 48.91762 | -125.24333 | 8372 ft | 151 kts | 62° |
| 2026-04-24 15:02 | 48.92176 | -125.22867 | 8527 ft | 150 kts | 61° |
| 2026-04-24 15:02 | 48.92588 | -125.21408 | 8688 ft | 150 kts | 61° |
| 2026-04-24 15:03 | 48.92858 | -125.20448 | 8790 ft | 149 kts | 61° |
| 2026-04-24 15:03 | 48.93267 | -125.18998 | 8942 ft | 149 kts | 61° |
| 2026-04-24 15:03 | 48.93827 | -125.17019 | 8998 ft | 157 kts | 61° |
| 2026-04-24 15:03 | 48.94261 | -125.15477 | 9003 ft | 160 kts | 62° |
| 2026-04-24 15:04 | 48.94700 | -125.13915 | 9003 ft | 161 kts | 62° |
| 2026-04-24 15:04 | 48.94994 | -125.12870 | 9007 ft | 164 kts | 62° |
| 2026-04-24 15:04 | 48.95448 | -125.11255 | 9007 ft | 168 kts | 62° |
| 2026-04-24 15:04 | 48.95912 | -125.09605 | 9004 ft | 171 kts | 62° |
| 2026-04-24 15:05 | 48.96235 | -125.07851 | 9009 ft | 178 kts | 82° |
| 2026-04-24 15:05 | 48.96203 | -125.05945 | 9007 ft | 181 kts | 85° |
| 2026-04-24 15:05 | 48.96180 | -125.04027 | 9010 ft | 182 kts | 85° |
| 2026-04-24 15:05 | 48.96160 | -125.02101 | 9010 ft | 182 kts | 85° |
| 2026-04-24 15:06 | 48.96137 | -125.00167 | 9008 ft | 183 kts | 85° |
| 2026-04-24 15:06 | 48.96114 | -124.98234 | 9008 ft | 183 kts | 85° |
| 2026-04-24 15:06 | 48.96091 | -124.96298 | 9010 ft | 183 kts | 85° |
| 2026-04-24 15:06 | 48.96067 | -124.94356 | 9006 ft | 184 kts | 85° |
| 2026-04-24 15:07 | 48.96043 | -124.92409 | 9009 ft | 184 kts | 85° |
| 2026-04-24 15:07 | 48.96018 | -124.90463 | 9004 ft | 184 kts | 85° |
| 2026-04-24 15:07 | 48.95993 | -124.88522 | 9008 ft | 183 kts | 85° |
| 2026-04-24 15:07 | 48.95969 | -124.86570 | 9004 ft | 185 kts | 85° |
| 2026-04-24 15:08 | 48.95943 | -124.84618 | 9005 ft | 184 kts | 85° |
| 2026-04-24 15:08 | 48.95917 | -124.82673 | 9010 ft | 185 kts | 85° |
| 2026-04-24 15:08 | 48.95891 | -124.80714 | 9005 ft | 185 kts | 85° |
| 2026-04-24 15:08 | 48.95863 | -124.78755 | 9002 ft | 185 kts | 85° |
| 2026-04-24 15:09 | 48.95837 | -124.76800 | 9011 ft | 186 kts | 85° |
| 2026-04-24 15:09 | 48.95810 | -124.74827 | 9006 ft | 186 kts | 85° |
| 2026-04-24 15:09 | 48.95781 | -124.72855 | 9006 ft | 188 kts | 85° |
| 2026-04-24 15:09 | 48.95754 | -124.70859 | 9009 ft | 190 kts | 85° |
| 2026-04-24 15:10 | 48.95723 | -124.68853 | 9015 ft | 187 kts | 85° |
| 2026-04-24 15:10 | 48.95695 | -124.66952 | 8990 ft | 172 kts | 85° |
| 2026-04-24 15:10 | 48.95665 | -124.65200 | 8992 ft | 162 kts | 84° |
| 2026-04-24 15:10 | 48.95642 | -124.63495 | 8994 ft | 161 kts | 84° |
| 2026-04-24 15:11 | 48.95617 | -124.61797 | 8995 ft | 159 kts | 83° |
| 2026-04-24 15:11 | 48.95594 | -124.60090 | 8997 ft | 163 kts | 84° |
| 2026-04-24 15:11 | 48.95567 | -124.58354 | 9000 ft | 165 kts | 85° |
| 2026-04-24 15:11 | 48.95280 | -124.56633 | 8999 ft | 172 kts | 107° |
| 2026-04-24 15:12 | 48.94806 | -124.54972 | 9001 ft | 171 kts | 105° |
| 2026-04-24 15:12 | 48.93885 | -124.51584 | 9004 ft | 176 kts | 105° |
| 2026-04-24 15:12 | 48.93406 | -124.49834 | 9014 ft | 182 kts | 105° |
| 2026-04-24 15:13 | 48.92914 | -124.48045 | 9005 ft | 183 kts | 105° |
| 2026-04-24 15:13 | 48.92421 | -124.46251 | 9008 ft | 184 kts | 105° |
| 2026-04-24 15:13 | 48.91924 | -124.44450 | 9009 ft | 185 kts | 105° |
| 2026-04-24 15:13 | 48.91426 | -124.42643 | 9011 ft | 185 kts | 105° |
| 2026-04-24 15:14 | 48.90928 | -124.40832 | 9011 ft | 186 kts | 105° |
| 2026-04-24 15:14 | 48.90429 | -124.39019 | 9009 ft | 186 kts | 105° |
| 2026-04-24 15:14 | 48.89929 | -124.37202 | 9004 ft | 186 kts | 105° |
| 2026-04-24 15:14 | 48.89426 | -124.35384 | 9004 ft | 187 kts | 105° |
| 2026-04-24 15:15 | 48.88923 | -124.33566 | 9004 ft | 186 kts | 105° |
| 2026-04-24 15:15 | 48.88421 | -124.31751 | 9003 ft | 186 kts | 105° |
| 2026-04-24 15:15 | 48.87920 | -124.29937 | 9003 ft | 186 kts | 105° |
| 2026-04-24 15:15 | 48.87418 | -124.28123 | 9006 ft | 186 kts | 105° |
| 2026-04-24 15:16 | 48.86916 | -124.26312 | 9006 ft | 186 kts | 105° |
| 2026-04-24 15:16 | 48.86414 | -124.24499 | 9006 ft | 186 kts | 105° |
| 2026-04-24 15:16 | 48.85910 | -124.22685 | 9006 ft | 186 kts | 105° |
| 2026-04-24 15:16 | 48.85407 | -124.20872 | 9005 ft | 186 kts | 105° |
| 2026-04-24 15:17 | 48.84904 | -124.19062 | 9005 ft | 186 kts | 105° |
| 2026-04-24 15:17 | 48.84400 | -124.17250 | 9012 ft | 186 kts | 105° |
| 2026-04-24 15:17 | 48.83895 | -124.15438 | 9001 ft | 186 kts | 105° |
| 2026-04-24 15:17 | 48.83395 | -124.13641 | 9003 ft | 185 kts | 105° |
| 2026-04-24 15:18 | 48.82893 | -124.11839 | 9008 ft | 185 kts | 105° |
| 2026-04-24 15:18 | 48.82397 | -124.10061 | 9006 ft | 185 kts | 105° |
| 2026-04-24 15:18 | 48.81894 | -124.08225 | 9013 ft | 185 kts | 102° |
| 2026-04-24 15:18 | 48.81743 | -124.06360 | 9010 ft | 175 kts | 78° |
| 2026-04-24 15:19 | 48.81915 | -124.04551 | 9012 ft | 173 kts | 74° |
| 2026-04-24 15:19 | 48.82081 | -124.02737 | 9017 ft | 173 kts | 75° |
| 2026-04-24 15:19 | 48.82246 | -124.00926 | 9017 ft | 173 kts | 75° |
| 2026-04-24 15:19 | 48.82412 | -123.99123 | 9021 ft | 172 kts | 75° |
| 2026-04-24 15:20 | 48.82578 | -123.97328 | 9008 ft | 172 kts | 75° |
| 2026-04-24 15:20 | 48.82741 | -123.95538 | 9015 ft | 172 kts | 74° |
| 2026-04-24 15:20 | 48.82908 | -123.93731 | 9019 ft | 173 kts | 75° |
| 2026-04-24 15:20 | 48.83074 | -123.91915 | 9017 ft | 174 kts | 75° |
| 2026-04-24 15:21 | 48.83240 | -123.90096 | 9022 ft | 174 kts | 75° |
| 2026-04-24 15:21 | 48.83406 | -123.88277 | 9019 ft | 174 kts | 74° |
| 2026-04-24 15:21 | 48.83570 | -123.86481 | 9022 ft | 174 kts | 75° |
| 2026-04-24 15:21 | 48.83737 | -123.84657 | 9013 ft | 174 kts | 75° |
| 2026-04-24 15:22 | 48.83900 | -123.82842 | 9017 ft | 173 kts | 75° |
| 2026-04-24 15:22 | 48.84064 | -123.81031 | 9017 ft | 173 kts | 75° |
| 2026-04-24 15:22 | 48.84228 | -123.79219 | 9016 ft | 173 kts | 75° |
| 2026-04-24 15:23 | 48.84555 | -123.75589 | 9018 ft | 174 kts | 75° |
| 2026-04-24 15:23 | 48.84882 | -123.71953 | 9017 ft | 172 kts | 75° |
| 2026-04-24 15:23 | 48.85044 | -123.70141 | 9014 ft | 173 kts | 75° |
| 2026-04-24 15:24 | 48.85530 | -123.64716 | 9020 ft | 173 kts | 75° |
| 2026-04-24 15:25 | 48.85798 | -123.61694 | 9016 ft | 174 kts | 75° |
| 2026-04-24 15:25 | 48.86173 | -123.57452 | 9018 ft | 173 kts | 75° |
| 2026-04-24 15:26 | 48.86654 | -123.52007 | 9015 ft | 173 kts | 75° |
| 2026-04-24 15:27 | 48.87130 | -123.46571 | 9021 ft | 173 kts | 75° |
| 2026-04-24 15:27 | 48.87605 | -123.41131 | 9017 ft | 173 kts | 75° |
| 2026-04-24 15:28 | 48.88233 | -123.33872 | 9018 ft | 173 kts | 75° |
| 2026-04-24 15:29 | 48.88547 | -123.30231 | 9018 ft | 174 kts | 75° |
| 2026-04-24 15:30 | 48.89015 | -123.24774 | 9021 ft | 173 kts | 75° |
| 2026-04-24 15:31 | 48.89582 | -123.18117 | 9016 ft | 174 kts | 75° |
| 2026-04-24 15:32 | 48.90249 | -123.10224 | 9017 ft | 174 kts | 75° |
| 2026-04-24 15:33 | 48.90860 | -123.02931 | 9022 ft | 174 kts | 75° |
| 2026-04-24 15:33 | 48.91315 | -122.97471 | 9022 ft | 174 kts | 75° |
| 2026-04-24 15:34 | 48.91618 | -122.93818 | 9026 ft | 174 kts | 75° |
| 2026-04-24 15:35 | 48.92069 | -122.88343 | 9021 ft | 174 kts | 75° |
| 2026-04-24 15:35 | 48.92369 | -122.84688 | 9022 ft | 174 kts | 75° |
| 2026-04-24 15:35 | 48.92519 | -122.82861 | 9022 ft | 174 kts | 75° |
| 2026-04-24 15:36 | 48.92668 | -122.81030 | 9018 ft | 174 kts | 75° |
| 2026-04-24 15:36 | 48.92965 | -122.77373 | 9015 ft | 171 kts | 75° |
| 2026-04-24 15:36 | 48.93107 | -122.75608 | 9010 ft | 166 kts | 75° |
| 2026-04-24 15:37 | 48.93250 | -122.73859 | 8922 ft | 167 kts | 75° |
| 2026-04-24 15:37 | 48.93345 | -122.72696 | 8869 ft | 167 kts | 75° |
| 2026-04-24 15:37 | 48.93487 | -122.70937 | 8789 ft | 168 kts | 75° |
| 2026-04-24 15:37 | 48.93629 | -122.69174 | 8711 ft | 168 kts | 75° |
| 2026-04-24 15:38 | 48.93773 | -122.67384 | 8631 ft | 168 kts | 75° |
| 2026-04-24 15:38 | 48.93913 | -122.65638 | 8555 ft | 169 kts | 76° |
| 2026-04-24 15:38 | 48.94056 | -122.63864 | 8476 ft | 169 kts | 76° |
| 2026-04-24 15:38 | 48.94198 | -122.62082 | 8400 ft | 170 kts | 76° |
| 2026-04-24 15:39 | 48.94340 | -122.60296 | 8321 ft | 170 kts | 76° |
| 2026-04-24 15:39 | 48.94485 | -122.58506 | 8243 ft | 170 kts | 75° |
| 2026-04-24 15:39 | 48.94873 | -122.56862 | 8165 ft | 164 kts | 56° |
| 2026-04-24 15:39 | 48.95402 | -122.55294 | 8088 ft | 165 kts | 58° |
| 2026-04-24 15:40 | 48.95907 | -122.53734 | 8009 ft | 164 kts | 58° |
| 2026-04-24 15:40 | 48.96407 | -122.52209 | 7933 ft | 163 kts | 57° |
| 2026-04-24 15:40 | 48.96918 | -122.50651 | 7854 ft | 162 kts | 57° |
| 2026-04-24 15:40 | 48.97416 | -122.49134 | 7775 ft | 162 kts | 58° |
| 2026-04-24 15:41 | 48.97920 | -122.47594 | 7701 ft | 162 kts | 58° |
| 2026-04-24 15:41 | 48.98425 | -122.46052 | 7625 ft | 163 kts | 58° |
| 2026-04-24 15:41 | 48.98930 | -122.44510 | 7550 ft | 163 kts | 58° |
| 2026-04-24 15:41 | 48.99435 | -122.42965 | 7471 ft | 163 kts | 58° |
| 2026-04-24 15:42 | 48.99941 | -122.41418 | 7395 ft | 163 kts | 58° |
| 2026-04-24 15:42 | 49.00446 | -122.39869 | 7320 ft | 163 kts | 58° |
| 2026-04-24 15:42 | 49.00952 | -122.38318 | 7246 ft | 164 kts | 58° |
| 2026-04-24 15:42 | 49.01460 | -122.36765 | 7175 ft | 164 kts | 58° |
| 2026-04-24 15:43 | 49.01967 | -122.35208 | 7093 ft | 164 kts | 58° |
| 2026-04-24 15:43 | 49.02475 | -122.33647 | 7018 ft | 164 kts | 58° |
| 2026-04-24 15:43 | 49.02961 | -122.32069 | 6945 ft | 165 kts | 64° |
| 2026-04-24 15:43 | 49.03352 | -122.30415 | 6867 ft | 166 kts | 65° |
| 2026-04-24 15:44 | 49.03742 | -122.28753 | 6768 ft | 167 kts | 65° |
| 2026-04-24 15:44 | 49.04137 | -122.27084 | 6669 ft | 167 kts | 65° |
| 2026-04-24 15:44 | 49.04535 | -122.25413 | 6567 ft | 168 kts | 65° |
| 2026-04-24 15:44 | 49.04932 | -122.23747 | 6461 ft | 167 kts | 65° |
| 2026-04-24 15:45 | 49.05332 | -122.22087 | 6351 ft | 166 kts | 65° |
| 2026-04-24 15:45 | 49.05737 | -122.20433 | 6247 ft | 167 kts | 65° |
| 2026-04-24 15:45 | 49.06146 | -122.18777 | 6141 ft | 166 kts | 65° |
| 2026-04-24 15:45 | 49.06556 | -122.17133 | 6041 ft | 166 kts | 65° |
| 2026-04-24 15:46 | 49.06971 | -122.15491 | 5933 ft | 166 kts | 65° |
| 2026-04-24 15:46 | 49.07391 | -122.13847 | 5829 ft | 166 kts | 65° |
| 2026-04-24 15:46 | 49.07782 | -122.12312 | 5724 ft | 142 kts | 65° |
| 2026-04-24 15:46 | 49.08128 | -122.10945 | 5595 ft | 137 kts | 65° |
| 2026-04-24 15:47 | 49.08477 | -122.09581 | 5409 ft | 138 kts | 66° |
| 2026-04-24 15:47 | 49.08830 | -122.08220 | 5224 ft | 138 kts | 66° |
| 2026-04-24 15:47 | 49.09192 | -122.06864 | 5048 ft | 138 kts | 65° |
| 2026-04-24 15:47 | 49.09559 | -122.05513 | 4862 ft | 138 kts | 65° |
| 2026-04-24 15:48 | 49.09932 | -122.04168 | 4679 ft | 137 kts | 65° |
| 2026-04-24 15:48 | 49.10311 | -122.02834 | 4490 ft | 134 kts | 65° |
| 2026-04-24 15:48 | 49.10678 | -122.01575 | 4300 ft | 129 kts | 65° |
| 2026-04-24 15:48 | 49.11061 | -122.00266 | 4103 ft | 141 kts | 65° |
| 2026-04-24 15:49 | 49.11471 | -121.98887 | 3920 ft | 139 kts | 65° |
| 2026-04-24 15:49 | 49.11847 | -121.97636 | 3741 ft | 124 kts | 65° |
| 2026-04-24 15:49 | 49.12212 | -121.96426 | 3560 ft | 126 kts | 65° |
| 2026-04-24 15:49 | 49.12577 | -121.95235 | 3503 ft | 124 kts | 64° |
| 2026-04-24 15:50 | 49.13158 | -121.94275 | 3472 ft | 125 kts | 36° |
| 2026-04-24 15:50 | 49.14006 | -121.93886 | 3402 ft | 134 kts | 9° |
| 2026-04-24 15:50 | 49.14927 | -121.93875 | 3427 ft | 130 kts | 5° |
| 2026-04-24 15:50 | 49.15843 | -121.93811 | 3329 ft | 133 kts | 13° |
| 2026-04-24 15:51 | 49.16762 | -121.93669 | 3338 ft | 131 kts | 6° |
| 2026-04-24 15:51 | 49.17670 | -121.94030 | 3310 ft | 140 kts | 336° |
| 2026-04-24 15:51 | 49.18488 | -121.94840 | 3263 ft | 138 kts | 347° |
| 2026-04-24 15:51 | 49.19404 | -121.94845 | 3179 ft | 133 kts | 17° |
| 2026-04-24 15:52 | 49.20240 | -121.94337 | 3145 ft | 127 kts | 35° |
| 2026-04-24 15:52 | 49.21008 | -121.93676 | 3121 ft | 127 kts | 30° |
| 2026-04-24 15:52 | 49.21840 | -121.93176 | 3067 ft | 129 kts | 19° |
| 2026-04-24 15:52 | 49.22748 | -121.93041 | 3018 ft | 133 kts | 4° |
| 2026-04-24 15:53 | 49.23679 | -121.93096 | 2953 ft | 134 kts | 7° |
| 2026-04-24 15:53 | 49.24601 | -121.92995 | 2918 ft | 132 kts | 9° |
| 2026-04-24 15:53 | 49.25517 | -121.92848 | 2851 ft | 134 kts | 3° |
| 2026-04-24 15:53 | 49.26377 | -121.93540 | 2576 ft | 155 kts | 307° |
| 2026-04-24 15:54 | 49.26541 | -121.95104 | 2540 ft | 152 kts | 253° |
| 2026-04-24 15:54 | 49.25950 | -121.96380 | 2499 ft | 148 kts | 218° |
| 2026-04-24 15:54 | 49.25162 | -121.97376 | 2492 ft | 145 kts | 224° |
| 2026-04-24 15:54 | 49.24569 | -121.98596 | 2574 ft | 141 kts | 239° |
| 2026-04-24 15:55 | 49.24075 | -121.99883 | 2584 ft | 144 kts | 230° |
| 2026-04-24 15:55 | 49.23324 | -122.00983 | 2456 ft | 151 kts | 215° |
| 2026-04-24 15:55 | 49.22475 | -122.01856 | 2537 ft | 144 kts | 209° |
| 2026-04-24 15:55 | 49.21632 | -122.02679 | 2533 ft | 144 kts | 208° |
| 2026-04-24 15:56 | 49.20768 | -122.03477 | 2507 ft | 145 kts | 209° |
| 2026-04-24 15:56 | 49.19985 | -122.04451 | 2565 ft | 145 kts | 220° |
| 2026-04-24 15:56 | 49.19242 | -122.05535 | 2515 ft | 151 kts | 222° |
| 2026-04-24 15:56 | 49.18615 | -122.06806 | 2559 ft | 146 kts | 239° |
| 2026-04-24 15:57 | 49.18269 | -122.08225 | 2647 ft | 145 kts | 253° |
| 2026-04-24 15:57 | 49.18014 | -122.09770 | 2537 ft | 152 kts | 257° |
| 2026-04-24 15:57 | 49.17850 | -122.10797 | 2554 ft | 148 kts | 253° |
| 2026-04-24 15:57 | 49.17397 | -122.12798 | 2543 ft | 151 kts | 248° |
| 2026-04-24 15:58 | 49.17058 | -122.14301 | 2553 ft | 148 kts | 251° |
| 2026-04-24 15:58 | 49.16748 | -122.15814 | 2540 ft | 149 kts | 254° |
| 2026-04-24 15:58 | 49.16537 | -122.17336 | 2625 ft | 145 kts | 261° |
| 2026-04-24 15:58 | 49.16343 | -122.18876 | 2557 ft | 151 kts | 255° |
| 2026-04-24 15:59 | 49.16039 | -122.20398 | 2564 ft | 148 kts | 253° |
| 2026-04-24 15:59 | 49.15813 | -122.21954 | 2493 ft | 152 kts | 259° |
| 2026-04-24 15:59 | 49.15632 | -122.23520 | 2504 ft | 149 kts | 261° |
| 2026-04-24 15:59 | 49.15466 | -122.25087 | 2488 ft | 149 kts | 261° |
| 2026-04-24 16:00 | 49.15402 | -122.26645 | 2505 ft | 146 kts | 277° |
| 2026-04-24 16:00 | 49.15677 | -122.28114 | 2555 ft | 143 kts | 299° |
| 2026-04-24 16:00 | 49.16133 | -122.29480 | 2563 ft | 144 kts | 299° |
| 2026-04-24 16:00 | 49.16564 | -122.30844 | 2620 ft | 142 kts | 297° |
| 2026-04-24 16:01 | 49.16962 | -122.32242 | 2610 ft | 144 kts | 295° |
| 2026-04-24 16:01 | 49.17340 | -122.33656 | 2650 ft | 143 kts | 295° |
| 2026-04-24 16:01 | 49.17699 | -122.35091 | 2664 ft | 145 kts | 291° |
| 2026-04-24 16:01 | 49.17951 | -122.36598 | 2642 ft | 148 kts | 283° |
| 2026-04-24 16:02 | 49.18200 | -122.38122 | 2621 ft | 149 kts | 289° |
| 2026-04-24 16:02 | 49.18519 | -122.39661 | 2674 ft | 155 kts | 289° |
| 2026-04-24 16:02 | 49.18848 | -122.41271 | 2633 ft | 160 kts | 288° |
| 2026-04-24 16:02 | 49.19159 | -122.42912 | 2705 ft | 160 kts | 287° |
| 2026-04-24 16:03 | 49.19455 | -122.44531 | 2743 ft | 161 kts | 288° |
| 2026-04-24 16:03 | 49.19797 | -122.46177 | 2814 ft | 159 kts | 291° |
| 2026-04-24 16:03 | 49.20181 | -122.47735 | 2857 ft | 159 kts | 296° |
| 2026-04-24 16:03 | 49.20616 | -122.49260 | 3005 ft | 153 kts | 295° |
| 2026-04-24 16:04 | 49.21019 | -122.50777 | 2992 ft | 157 kts | 291° |
| 2026-04-24 16:04 | 49.21325 | -122.52409 | 2943 ft | 163 kts | 282° |
| 2026-04-24 16:04 | 49.21507 | -122.54125 | 2924 ft | 163 kts | 280° |
| 2026-04-24 16:04 | 49.21657 | -122.55851 | 2884 ft | 159 kts | 276° |
| 2026-04-24 16:05 | 49.21872 | -122.59190 | 2559 ft | 162 kts | 275° |
| 2026-04-24 16:05 | 49.21967 | -122.60900 | 2377 ft | 160 kts | 275° |
| 2026-04-24 16:06 | 49.22154 | -122.64242 | 2132 ft | 157 kts | 277° |
| 2026-04-24 16:06 | 49.22255 | -122.65876 | 2060 ft | 150 kts | 273° |
| 2026-04-24 16:06 | 49.22399 | -122.69037 | 1744 ft | 146 kts | 275° |
| 2026-04-24 16:07 | 49.22514 | -122.70612 | 1400 ft | 152 kts | 275° |
| 2026-04-24 16:07 | 49.22586 | -122.72182 | 1252 ft | 142 kts | 274° |
| 2026-04-24 16:07 | 49.22728 | -122.75030 | 1205 ft | 130 kts | 273° |
| 2026-04-24 16:08 | 49.22778 | -122.76401 | 1181 ft | 127 kts | 267° |
| 2026-04-24 16:08 | 49.21791 | -122.77376 | 795 ft | 103 kts | 110° |
| 2026-04-24 16:09 | 49.21716 | -122.75138 | 460 ft | 106 kts | 102° |
| 2026-04-24 16:09 | 49.21613 | -122.74026 | 345 ft | 104 kts | 99° |
| 2026-04-24 16:09 | 49.21556 | -122.73323 | 264 ft | 98 kts | 98° |
| 2026-04-24 16:09 | 49.21449 | -122.72029 | 37 ft | 84 kts | 98° |
| 2026-04-24 16:10 | 49.21314 | -122.70444 | 28 ft | 14 kts | 124° |
| 2026-04-24 16:11 | 49.21223 | -122.70428 | 29 ft | 10 kts | 186° |
| 2026-04-24 16:11 | 49.21167 | -122.70444 | 29 ft | 7 kts | 243° |
| 2026-04-24 16:11 | 49.21176 | -122.70537 | 29 ft | 12 kts | 273° |
| 2026-04-24 16:12 | 49.21143 | -122.70528 | 26 ft | 10 kts | 97° |
| 2026-04-24 16:12 | 49.21150 | -122.70477 | 27 ft | 2 kts | 9° |
| 2026-04-24 16:12 | 49.21155 | -122.70476 | 26 ft | 0 kts | 4° |